createdAt,value
2024-05-09T00:00:35.850Z,84.26
2024-05-09T00:03:10.634Z,83.99
2024-05-09T00:05:40.196Z,84.67
2024-05-09T00:08:07.327Z,84.01
2024-05-09T00:10:37.518Z,83.86
2024-05-09T00:13:10.241Z,84.04
2024-05-09T00:15:37.478Z,85.09
2024-05-09T00:18:05.558Z,85.04
2024-05-09T00:20:38.127Z,84.42
2024-05-09T00:23:12.085Z,84.75
2024-05-09T00:25:39.895Z,84.88
2024-05-09T00:28:06.715Z,85.44
2024-05-09T00:30:36.091Z,85.16
2024-05-09T00:33:05.893Z,84.61
2024-05-09T00:35:33.741Z,85.17
2024-05-09T00:38:00.851Z,84.47
2024-05-09T00:40:37.647Z,84.28
2024-05-09T00:43:06.990Z,84.13
2024-05-09T00:45:34.768Z,84.29
2024-05-09T00:48:03.273Z,84.25
2024-05-09T00:50:36.343Z,85.20
2024-05-09T00:53:06.870Z,85.21
2024-05-09T00:55:35.582Z,84.86
2024-05-09T00:58:03.139Z,84.85
2024-05-09T01:00:37.845Z,85.31
2024-05-09T01:03:07.611Z,85.63
2024-05-09T01:05:35.323Z,85.08
2024-05-09T01:08:02.820Z,85.07
2024-05-09T01:10:34.430Z,85.83
2024-05-09T01:13:06.401Z,84.94
2024-05-09T01:15:34.774Z,85.77
2024-05-09T01:18:07.019Z,86.27
2024-05-09T01:20:41.088Z,85.72
2024-05-09T01:23:11.164Z,85.29
2024-05-09T01:25:38.211Z,85.52
2024-05-09T01:28:05.405Z,85.71
2024-05-09T01:30:35.474Z,85.29
2024-05-09T01:33:06.272Z,85.99
2024-05-09T01:35:34.633Z,85.84
2024-05-09T01:38:01.381Z,85.88
2024-05-09T01:40:36.053Z,85.95
2024-05-09T01:43:05.603Z,86.50
2024-05-09T01:45:32.208Z,86.26
2024-05-09T01:47:59.320Z,86.27
2024-05-09T01:50:37.166Z,85.80
2024-05-09T01:53:07.698Z,85.76
2024-05-09T01:55:34.413Z,85.48
2024-05-09T01:58:01.107Z,85.42
2024-05-09T02:00:37.791Z,85.87
2024-05-09T02:03:15.295Z,86.25
2024-05-09T02:05:45.090Z,86.19
2024-05-09T02:08:17.317Z,85.67
2024-05-09T02:10:44.877Z,85.95
2024-05-09T02:13:11.680Z,86.83
2024-05-09T02:15:38.405Z,86.63
2024-05-09T02:18:05.759Z,86.43
2024-05-09T02:20:36.109Z,86.75
2024-05-09T02:23:06.194Z,86.17
2024-05-09T02:25:33.424Z,86.26
2024-05-09T02:28:00.140Z,86.74
2024-05-09T02:30:37.695Z,86.94
2024-05-09T02:33:08.286Z,87.08
2024-05-09T02:35:35.970Z,87.35
2024-05-09T02:38:03.044Z,87.21
2024-05-09T02:40:36.607Z,87.26
2024-05-09T02:43:06.336Z,86.41
2024-05-09T02:45:33.199Z,87.68
2024-05-09T02:48:00.503Z,87.86
2024-05-09T02:50:34.478Z,88.11
2024-05-09T02:53:06.166Z,88.08
2024-05-09T02:55:33.186Z,88.10
2024-05-09T02:57:59.911Z,87.77
2024-05-09T03:00:35.063Z,88.10
2024-05-09T03:03:12.757Z,88.67
2024-05-09T03:05:41.836Z,88.27
2024-05-09T03:08:08.896Z,88.60
2024-05-09T03:10:38.238Z,88.62
2024-05-09T03:13:11.469Z,88.44
2024-05-09T03:15:38.188Z,88.78
2024-05-09T03:18:06.328Z,88.25
2024-05-09T03:20:35.631Z,87.71
2024-05-09T03:23:05.063Z,88.18
2024-05-09T03:25:32.286Z,88.38
2024-05-09T03:27:59.330Z,88.54
2024-05-09T03:30:36.781Z,88.40
2024-05-09T03:33:13.168Z,88.32
2024-05-09T03:35:41.005Z,88.46
2024-05-09T03:38:07.675Z,87.64
2024-05-09T03:40:34.252Z,87.35
2024-05-09T03:43:00.890Z,87.11
2024-05-09T03:45:27.496Z,87.55
2024-05-09T03:47:54.410Z,87.76
2024-05-09T03:50:29.523Z,88.12
2024-05-09T03:53:00.609Z,88.26
2024-05-09T03:55:27.566Z,87.29
2024-05-09T03:57:54.477Z,87.48
2024-05-09T04:00:30.554Z,88.15
2024-05-09T04:03:03.936Z,88.75
2024-05-09T04:05:31.224Z,89.04
2024-05-09T04:07:58.513Z,88.93
2024-05-09T04:10:32.410Z,89.20
2024-05-09T04:13:00.730Z,89.46
2024-05-09T04:15:27.430Z,89.61
2024-05-09T04:17:54.232Z,89.58
2024-05-09T04:20:29.579Z,89.91
2024-05-09T04:23:04.342Z,89.09
2024-05-09T04:25:32.158Z,88.99
2024-05-09T04:27:58.751Z,89.09
2024-05-09T04:30:34.602Z,89.59
2024-05-09T04:33:06.442Z,89.85
2024-05-09T04:35:33.939Z,90.17
2024-05-09T04:38:00.711Z,89.60
2024-05-09T04:40:33.196Z,89.91
2024-05-09T04:43:03.344Z,89.22
2024-05-09T04:45:30.374Z,88.72
2024-05-09T04:47:57.141Z,89.09
2024-05-09T04:50:33.276Z,88.96
2024-05-09T04:53:04.127Z,89.12
2024-05-09T04:55:31.285Z,88.66
2024-05-09T04:57:57.894Z,87.89
2024-05-09T05:00:32.529Z,87.87
2024-05-09T05:03:06.970Z,88.20
2024-05-09T05:05:37.569Z,87.81
2024-05-09T05:08:04.789Z,88.25
2024-05-09T05:10:36.047Z,88.09
2024-05-09T05:13:17.941Z,87.84
2024-05-09T05:15:50.478Z,88.40
2024-05-09T05:18:17.850Z,88.01
2024-05-09T05:20:45.176Z,87.25
2024-05-09T05:23:13.747Z,87.14
2024-05-09T05:25:41.325Z,86.80
2024-05-09T05:28:08.094Z,86.52
2024-05-09T05:30:37.508Z,86.44
2024-05-09T05:33:05.306Z,86.12
2024-05-09T05:35:32.171Z,86.07
2024-05-09T05:37:58.855Z,86.36
2024-05-09T05:40:33.105Z,86.23
2024-05-09T05:43:04.778Z,86.11
2024-05-09T05:45:31.376Z,86.24
2024-05-09T05:47:58.190Z,85.75
2024-05-09T05:50:32.540Z,85.80
2024-05-09T05:53:03.209Z,85.95
2024-05-09T05:55:30.020Z,85.49
2024-05-09T05:57:56.703Z,85.02
2024-05-09T06:00:29.923Z,84.20
2024-05-09T06:03:04.869Z,79.75
2024-05-09T06:05:31.949Z,73.96
2024-05-09T06:07:58.909Z,69.47
2024-05-09T06:10:30.233Z,66.74
2024-05-09T06:13:04.131Z,63.81
2024-05-09T06:15:30.686Z,61.23
2024-05-09T06:17:57.438Z,60.10
2024-05-09T06:20:33.612Z,57.96
2024-05-09T06:23:03.470Z,55.66
2024-05-09T06:25:30.212Z,54.68
2024-05-09T06:27:56.833Z,53.82
2024-05-09T06:30:30.389Z,53.18
2024-05-09T06:33:05.595Z,52.10
2024-05-09T06:35:33.112Z,52.07
2024-05-09T06:38:00.044Z,53.40
2024-05-09T06:40:36.002Z,55.74
2024-05-09T06:43:05.412Z,54.70
2024-05-09T06:45:32.015Z,56.19
2024-05-09T06:47:58.844Z,58.91
2024-05-09T06:50:28.577Z,55.82
2024-05-09T06:53:02.569Z,53.81
2024-05-09T06:55:29.339Z,53.98
2024-05-09T06:57:55.931Z,56.95
2024-05-09T07:00:30.294Z,58.52
2024-05-09T07:03:12.185Z,61.49
2024-05-09T07:05:40.422Z,62.30
2024-05-09T07:08:07.733Z,65.08
2024-05-09T07:10:36.463Z,65.58
2024-05-09T07:13:08.397Z,67.62
2024-05-09T07:15:35.003Z,68.69
2024-05-09T07:18:01.901Z,68.74
2024-05-09T07:20:34.408Z,69.81
2024-05-09T07:23:04.888Z,69.77
2024-05-09T07:25:31.697Z,70.25
2024-05-09T07:27:58.350Z,70.89
2024-05-09T07:30:32.676Z,71.04
2024-05-09T07:33:01.686Z,70.75
2024-05-09T07:35:29.450Z,71.80
2024-05-09T07:37:56.402Z,69.88
2024-05-09T07:42:52.564Z,68.53
2024-05-09T07:45:40.466Z,68.43
2024-05-09T07:52:32.664Z,70.05
2024-05-09T07:55:54.006Z,70.94
2024-05-09T07:58:22.330Z,70.49
2024-05-09T08:00:49.074Z,71.53
2024-05-09T08:03:15.974Z,70.81
2024-05-09T08:05:42.759Z,70.42
2024-05-09T08:08:09.416Z,69.96
2024-05-09T08:10:36.139Z,70.73
2024-05-09T08:13:02.840Z,70.87
2024-05-09T08:15:29.721Z,71.17
2024-05-09T08:17:56.653Z,70.23
2024-05-09T08:20:30.925Z,71.17
2024-05-09T08:23:01.451Z,74.45
2024-05-09T08:25:28.280Z,70.21
2024-05-09T08:27:54.982Z,69.32
2024-05-09T08:30:25.345Z,72.42
2024-05-09T08:32:59.282Z,69.84
2024-05-09T08:35:25.961Z,65.76
2024-05-09T08:37:53.589Z,62.15
2024-05-09T08:40:30.433Z,59.78
2024-05-09T08:43:02.545Z,59.07
2024-05-09T08:45:31.301Z,57.68
2024-05-09T08:48:01.343Z,56.32
2024-05-09T08:50:35.891Z,57.13
2024-05-09T08:53:05.875Z,54.85
2024-05-09T08:55:32.761Z,52.57
2024-05-09T08:58:02.644Z,52.99
2024-05-09T09:00:36.554Z,54.90
2024-05-09T09:03:08.309Z,52.43
2024-05-09T09:05:38.822Z,52.34
2024-05-09T09:08:07.939Z,52.12
2024-05-09T09:10:35.583Z,50.85
2024-05-09T09:13:04.724Z,51.04
2024-05-09T09:15:32.009Z,51.38
2024-05-09T09:18:00.199Z,49.82
2024-05-09T09:20:34.226Z,52.71
2024-05-09T09:23:03.895Z,53.76
2024-05-09T09:25:30.816Z,55.05
2024-05-09T09:27:58.530Z,56.04
2024-05-09T09:30:35.187Z,55.39
2024-05-09T09:33:05.393Z,56.72
2024-05-09T09:35:32.719Z,56.75
2024-05-09T09:38:02.371Z,58.77
2024-05-09T09:40:38.633Z,59.28
2024-05-09T09:43:18.578Z,60.11
2024-05-09T09:45:46.868Z,60.19
2024-05-09T09:48:14.858Z,60.63
2024-05-09T09:50:42.456Z,61.16
2024-05-09T09:53:10.352Z,61.73
2024-05-09T09:55:38.581Z,61.77
2024-05-09T09:58:09.658Z,61.80
2024-05-09T10:00:38.871Z,62.00
2024-05-09T10:03:05.653Z,62.00
2024-05-09T10:05:33.601Z,62.26
2024-05-09T10:08:05.542Z,62.67
2024-05-09T10:10:36.278Z,63.71
2024-05-09T10:13:07.755Z,63.81
2024-05-09T10:15:50.386Z,63.82
2024-05-09T10:18:17.682Z,64.84
2024-05-09T10:20:45.194Z,60.42
2024-05-09T10:23:30.624Z,62.69
2024-05-09T10:26:01.689Z,64.16
2024-05-09T10:28:33.315Z,64.89
2024-05-09T10:31:12.163Z,65.54
2024-05-09T10:33:46.128Z,65.75
2024-05-09T10:36:22.950Z,64.25
2024-05-09T10:38:50.326Z,64.57
2024-05-09T10:41:18.031Z,64.99
2024-05-09T10:43:44.831Z,65.46
2024-05-09T10:46:12.300Z,64.69
2024-05-09T10:48:41.609Z,62.66
2024-05-09T10:51:09.197Z,64.49
2024-05-09T10:53:42.688Z,64.96
2024-05-09T10:56:09.748Z,64.39
2024-05-09T10:58:36.641Z,64.87
2024-05-09T11:01:06.745Z,64.69
2024-05-09T11:03:34.735Z,64.18
2024-05-09T11:06:01.577Z,65.84
2024-05-09T11:08:28.772Z,62.49
2024-05-09T11:10:56.305Z,64.81
2024-05-09T11:13:33.456Z,65.00
2024-05-09T11:16:00.687Z,64.91
2024-05-09T11:18:32.171Z,64.93
2024-05-09T11:21:02.016Z,61.53
2024-05-09T11:23:32.427Z,63.68
2024-05-09T11:25:59.245Z,63.71
2024-05-09T11:28:28.703Z,63.87
2024-05-09T11:31:09.476Z,63.67
2024-05-09T11:33:43.109Z,63.34
2024-05-09T11:36:10.654Z,63.09
2024-05-09T11:38:37.548Z,64.03
2024-05-09T11:41:05.313Z,64.17
2024-05-09T11:43:32.154Z,62.57
2024-05-09T11:45:59.910Z,64.00
2024-05-09T11:48:26.952Z,63.69
2024-05-09T11:50:55.308Z,63.28
2024-05-09T11:53:22.027Z,63.60
2024-05-09T11:55:48.728Z,64.25
2024-05-09T11:58:17.596Z,64.36
2024-05-09T12:00:45.031Z,63.59
2024-05-09T12:03:11.764Z,63.76
2024-05-09T12:05:38.594Z,63.86
2024-05-09T12:08:06.050Z,63.00
2024-05-09T12:10:35.267Z,63.17
2024-05-09T12:13:05.399Z,63.41
2024-05-09T12:15:34.003Z,63.65
2024-05-09T12:18:03.421Z,63.39
2024-05-09T12:20:36.749Z,63.53
2024-05-09T12:23:06.278Z,63.13
2024-05-09T12:25:33.093Z,63.43
2024-05-09T12:28:00.189Z,63.00
2024-05-09T12:30:35.511Z,62.92
2024-05-09T12:33:06.540Z,63.12
2024-05-09T12:35:33.318Z,62.85
2024-05-09T12:38:00.008Z,61.53
2024-05-09T12:40:34.694Z,60.10
2024-05-09T12:43:05.246Z,62.04
2024-05-09T12:45:32.308Z,62.56
2024-05-09T12:47:59.471Z,61.87
2024-05-09T12:50:32.312Z,62.45
2024-05-09T12:53:01.099Z,61.58
2024-05-09T12:55:28.639Z,60.10
2024-05-09T12:57:58.556Z,61.32
2024-05-09T13:00:31.461Z,61.31
2024-05-09T13:03:00.952Z,60.76
2024-05-09T13:05:28.168Z,61.71
2024-05-09T13:07:56.427Z,61.51
2024-05-09T13:10:29.351Z,61.14
2024-05-09T13:12:59.845Z,61.09
2024-05-09T13:15:26.899Z,60.06
2024-05-09T13:17:54.820Z,61.40
2024-05-09T13:20:29.479Z,58.67
2024-05-09T13:23:05.582Z,59.08
2024-05-09T13:25:34.822Z,62.00
2024-05-09T13:28:02.051Z,62.36
2024-05-09T13:30:37.300Z,62.89
2024-05-09T13:33:07.358Z,63.05
2024-05-09T13:35:35.663Z,60.98
2024-05-09T13:38:03.464Z,63.40
2024-05-09T13:40:34.363Z,62.59
2024-05-09T13:43:04.036Z,63.60
2024-05-09T13:45:31.070Z,63.58
2024-05-09T13:47:58.179Z,63.91
2024-05-09T13:50:33.191Z,64.17
2024-05-09T13:53:02.788Z,64.05
2024-05-09T13:55:29.357Z,64.04
2024-05-09T13:57:56.344Z,64.78
2024-05-09T14:00:37.346Z,63.98
2024-05-09T14:03:09.868Z,64.68
2024-05-09T14:05:37.060Z,64.48
2024-05-09T14:08:04.098Z,65.20
2024-05-09T14:10:32.097Z,65.07
2024-05-09T14:13:00.259Z,65.02
2024-05-09T14:15:27.089Z,63.92
2024-05-09T14:17:54.771Z,64.14
2024-05-09T14:22:50.858Z,63.88
2024-05-09T14:25:17.610Z,63.96
2024-05-09T14:27:44.412Z,64.35
2024-05-09T14:30:18.267Z,64.22
2024-05-09T14:32:52.638Z,62.82
2024-05-09T14:35:19.411Z,62.09
2024-05-09T14:37:46.134Z,63.80
2024-05-09T14:40:30.307Z,63.00
2024-05-09T14:43:03.158Z,63.77
2024-05-09T14:45:30.224Z,62.00
2024-05-09T14:47:57.215Z,61.79
2024-05-09T14:50:34.040Z,60.37
2024-05-09T14:53:03.776Z,63.70
2024-05-09T14:55:30.726Z,62.27
2024-05-09T14:57:57.416Z,62.87
2024-05-09T15:00:28.941Z,62.26
2024-05-09T15:03:00.541Z,60.21
2024-05-09T15:05:27.389Z,61.97
2024-05-09T15:07:54.458Z,61.05
2024-05-09T15:10:27.452Z,59.95
2024-05-09T15:13:01.240Z,61.68
2024-05-09T15:15:28.046Z,61.87
2024-05-09T15:17:55.466Z,59.42
2024-05-09T15:20:31.073Z,62.74
2024-05-09T15:23:02.260Z,62.61
2024-05-09T15:25:29.107Z,58.78
2024-05-09T15:27:56.018Z,63.03
2024-05-09T15:32:55.874Z,62.34
2024-05-09T15:35:22.512Z,62.81
2024-05-09T15:37:49.320Z,63.28
2024-05-09T15:40:26.013Z,64.25
2024-05-09T15:43:01.876Z,62.26
2024-05-09T15:45:31.371Z,63.89
2024-05-09T15:47:58.493Z,62.83
2024-05-09T15:50:35.388Z,63.21
2024-05-09T15:53:06.135Z,62.67
2024-05-09T15:55:33.989Z,63.54
2024-05-09T15:58:02.662Z,64.41
2024-05-09T16:00:37.338Z,63.84
2024-05-09T16:03:07.854Z,64.04
2024-05-09T16:05:34.896Z,64.52
2024-05-09T16:08:02.290Z,64.28
2024-05-09T16:10:32.782Z,63.33
2024-05-09T16:13:01.588Z,62.07
2024-05-09T16:15:28.581Z,61.90
2024-05-09T16:17:55.622Z,63.43
2024-05-09T16:20:33.906Z,64.49
2024-05-09T16:23:06.064Z,65.61
2024-05-09T16:25:32.717Z,65.62
2024-05-09T16:27:59.953Z,61.70
2024-05-09T16:30:33.892Z,64.47
2024-05-09T16:33:03.494Z,65.56
2024-05-09T16:35:30.859Z,62.92
2024-05-09T16:37:57.510Z,64.07
2024-05-09T16:40:34.274Z,63.63
2024-05-09T16:43:05.844Z,62.81
2024-05-09T16:45:33.214Z,63.32
2024-05-09T16:48:00.514Z,64.83
2024-05-09T16:50:32.522Z,65.42
2024-05-09T16:53:01.724Z,65.24
2024-05-09T16:55:28.502Z,63.08
2024-05-09T16:57:56.375Z,62.78
2024-05-09T17:00:34.822Z,66.14
2024-05-09T17:03:07.764Z,66.70
2024-05-09T17:05:35.539Z,65.30
2024-05-09T17:08:03.076Z,67.02
2024-05-09T17:10:33.520Z,67.35
2024-05-09T17:13:03.643Z,64.21
2024-05-09T17:15:32.139Z,66.74
2024-05-09T17:17:59.135Z,64.71
2024-05-09T17:20:32.427Z,67.23
2024-05-09T17:23:02.403Z,67.72
2024-05-09T17:25:29.396Z,68.18
2024-05-09T17:27:56.676Z,66.46
2024-05-09T17:30:31.623Z,67.61
2024-05-09T17:33:03.180Z,68.41
2024-05-09T17:35:29.965Z,66.02
2024-05-09T17:37:58.915Z,63.60
2024-05-09T17:40:31.521Z,65.68
2024-05-09T17:43:02.987Z,68.25
2024-05-09T17:45:29.797Z,68.70
2024-05-09T17:47:56.654Z,66.66
2024-05-09T17:50:30.371Z,69.33
2024-05-09T17:53:01.445Z,68.82
2024-05-09T17:55:28.619Z,67.84
2024-05-09T17:57:55.833Z,68.13
2024-05-09T18:00:32.951Z,68.19
2024-05-09T18:03:05.501Z,68.31
2024-05-09T18:05:32.560Z,68.66
2024-05-09T18:07:59.317Z,69.79
2024-05-09T18:10:33.123Z,70.17
2024-05-09T18:13:05.475Z,69.31
2024-05-09T18:15:32.666Z,70.65
2024-05-09T18:17:59.615Z,71.05
2024-05-09T18:20:36.652Z,71.86
2024-05-09T18:23:09.079Z,72.62
2024-05-09T18:25:35.688Z,72.35
2024-05-09T18:28:03.540Z,72.59
2024-05-09T18:30:34.878Z,72.34
2024-05-09T18:33:07.653Z,72.38
2024-05-09T18:35:35.157Z,72.01
2024-05-09T18:38:02.272Z,72.89
2024-05-09T18:40:34.247Z,73.52
2024-05-09T18:43:06.106Z,74.27
2024-05-09T18:45:34.322Z,73.34
2024-05-09T18:48:01.224Z,74.18
2024-05-09T18:50:34.496Z,76.61
2024-05-09T18:53:08.415Z,74.37
2024-05-09T18:55:35.567Z,73.73
2024-05-09T18:58:03.458Z,74.10
2024-05-09T19:00:35.770Z,74.03
2024-05-09T19:03:09.449Z,75.28
2024-05-09T19:05:39.184Z,74.44
2024-05-09T19:08:07.439Z,75.64
2024-05-09T19:10:35.687Z,75.33
2024-05-09T19:13:08.012Z,75.16
2024-05-09T19:15:38.393Z,75.03
2024-05-09T19:18:06.105Z,75.26
2024-05-09T19:20:35.221Z,74.94
2024-05-09T19:23:03.474Z,76.00
2024-05-09T19:25:30.303Z,76.08
2024-05-09T19:27:56.947Z,76.57
2024-05-09T19:30:30.528Z,76.60
2024-05-09T19:33:05.591Z,76.93
2024-05-09T19:35:32.513Z,76.74
2024-05-09T19:37:59.274Z,76.70
2024-05-09T19:40:31.355Z,77.36
2024-05-09T19:43:01.523Z,76.32
2024-05-09T19:45:28.836Z,76.60
2024-05-09T19:47:55.959Z,77.03
2024-05-09T19:50:31.012Z,76.85
2024-05-09T19:53:04.209Z,77.76
2024-05-09T19:55:30.909Z,78.66
2024-05-09T19:57:58.227Z,77.28
2024-05-09T20:00:32.670Z,78.74
2024-05-09T20:03:02.680Z,78.31
2024-05-09T20:05:31.207Z,78.05
2024-05-09T20:07:58.277Z,78.13
2024-05-09T20:10:31.100Z,78.07
2024-05-09T20:13:00.036Z,78.15
2024-05-09T20:15:26.981Z,79.60
2024-05-09T20:17:54.348Z,78.14
2024-05-09T20:20:32.076Z,78.64
2024-05-09T20:23:04.069Z,78.67
2024-05-09T20:25:30.757Z,78.07
2024-05-09T20:27:57.737Z,79.24
2024-05-09T20:30:31.292Z,78.43
2024-05-09T20:33:00.691Z,79.34
2024-05-09T20:35:31.638Z,80.73
2024-05-09T20:37:58.819Z,80.93
2024-05-09T20:40:31.646Z,79.96
2024-05-09T20:43:02.044Z,80.85
2024-05-09T20:45:28.720Z,79.05
2024-05-09T20:47:55.875Z,79.78
2024-05-09T20:50:29.279Z,79.59
2024-05-09T20:53:03.656Z,80.52
2024-05-09T20:55:30.518Z,81.03
2024-05-09T20:57:57.750Z,79.35
2024-05-09T21:00:34.325Z,79.89
2024-05-09T21:03:07.015Z,81.01
2024-05-09T21:05:34.973Z,82.40
2024-05-09T21:08:02.148Z,80.84
2024-05-09T21:10:32.796Z,81.71
2024-05-09T21:13:01.363Z,80.78
2024-05-09T21:15:30.522Z,80.99
2024-05-09T21:17:57.258Z,81.15
2024-05-09T21:20:30.591Z,80.20
2024-05-09T21:22:58.963Z,80.71
2024-05-09T21:25:25.858Z,80.04
2024-05-09T21:27:52.819Z,81.80
2024-05-09T21:30:31.285Z,81.21
2024-05-09T21:33:05.847Z,80.30
2024-05-09T21:35:32.791Z,80.38
2024-05-09T21:37:59.378Z,82.66
2024-05-09T21:40:33.354Z,82.95
2024-05-09T21:43:02.234Z,83.10
2024-05-09T21:45:28.941Z,81.06
2024-05-09T21:47:55.938Z,81.06
2024-05-09T21:50:28.512Z,81.96
2024-05-09T21:53:03.000Z,80.48
2024-05-09T21:55:30.090Z,81.79
2024-05-09T21:57:56.949Z,81.84
2024-05-09T22:00:32.037Z,80.70
2024-05-09T22:03:03.513Z,81.16
2024-05-09T22:05:30.416Z,81.56
2024-05-09T22:07:57.330Z,79.92
2024-05-09T22:10:30.553Z,80.33
2024-05-09T22:13:00.977Z,82.20
2024-05-09T22:15:27.787Z,82.33
2024-05-09T22:17:56.349Z,83.22
2024-05-09T22:20:32.840Z,82.86
2024-05-09T22:23:03.232Z,83.40
2024-05-09T22:25:31.172Z,82.20
2024-05-09T22:27:58.880Z,80.78
2024-05-09T22:30:34.135Z,80.21
2024-05-09T22:33:05.207Z,77.70
2024-05-09T22:35:32.024Z,80.35
2024-05-09T22:37:58.739Z,78.28
2024-05-09T22:40:37.872Z,80.83
2024-05-09T22:43:12.577Z,79.87
2024-05-09T22:45:39.524Z,81.14
2024-05-09T22:48:07.443Z,81.51
2024-05-09T22:50:34.290Z,78.16
2024-05-09T22:53:01.246Z,79.09
2024-05-09T22:55:27.973Z,79.93
2024-05-09T22:57:54.711Z,80.24
2024-05-09T23:00:29.328Z,83.03
2024-05-09T23:02:59.785Z,81.42
2024-05-09T23:05:26.722Z,81.77
2024-05-09T23:07:53.457Z,80.14
2024-05-09T23:10:27.487Z,82.82
2024-05-09T23:12:59.056Z,79.48
2024-05-09T23:15:25.742Z,80.93
2024-05-09T23:17:52.541Z,81.02
2024-05-09T23:20:29.784Z,80.42
2024-05-09T23:23:03.501Z,81.58
2024-05-09T23:25:30.163Z,82.24
2024-05-09T23:27:56.926Z,80.97
2024-05-09T23:30:33.274Z,79.83
2024-05-09T23:33:05.162Z,80.16
2024-05-09T23:35:31.925Z,78.30
2024-05-09T23:37:58.546Z,79.04
2024-05-09T23:40:36.656Z,80.34
2024-05-09T23:43:06.846Z,81.53
2024-05-09T23:45:33.755Z,80.48
2024-05-09T23:48:00.722Z,81.44
2024-05-09T23:50:34.293Z,79.23
2024-05-09T23:53:04.249Z,81.56
2024-05-09T23:55:31.625Z,81.62
2024-05-09T23:57:58.663Z,81.26
